sensor_id;sensor_type;location;lat;lon;timestamp;pressure;altitude;pressure_sealevel;temperature;humidity
21781;BME280;52576;53.614;9.894;2023-04-02T00:01:12;101355.28;;;0.87;73.28
21781;BME280;52576;53.614;9.894;2023-04-02T00:03:18;101359.56;;;0.88;73.13
21781;BME280;52576;53.614;9.894;2023-04-02T00:08:02;101369.03;;;0.88;72.89
21781;BME280;52576;53.614;9.894;2023-04-02T00:10:23;101372.47;;;0.88;72.92
21781;BME280;52576;53.614;9.894;2023-04-02T00:12:27;101379.34;;;0.89;72.92
21781;BME280;52576;53.614;9.894;2023-04-02T00:14:30;101377.63;;;0.88;73.22
21781;BME280;52576;53.614;9.894;2023-04-02T00:16:35;101378.50;;;0.87;73.15
21781;BME280;52576;53.614;9.894;2023-04-02T00:18:39;101380.25;;;0.85;73.22
21781;BME280;52576;53.614;9.894;2023-04-02T00:20:45;101384.56;;;0.85;73.05
21781;BME280;52576;53.614;9.894;2023-04-02T00:22:48;101378.56;;;0.84;73.22
21781;BME280;52576;53.614;9.894;2023-04-02T00:24:54;101379.44;;;0.83;72.98
21781;BME280;52576;53.614;9.894;2023-04-02T00:27:00;101388.03;;;0.84;73.00
21781;BME280;52576;53.614;9.894;2023-04-02T00:29:04;101392.34;;;0.83;72.90
21781;BME280;52576;53.614;9.894;2023-04-02T00:31:08;101387.13;;;0.86;72.65
21781;BME280;52576;53.614;9.894;2023-04-02T00:33:13;101399.97;;;0.89;72.63
21781;BME280;52576;53.614;9.894;2023-04-02T00:35:19;101404.25;;;0.92;72.61
21781;BME280;52576;53.614;9.894;2023-04-02T00:37:26;101404.22;;;0.93;72.51
21781;BME280;52576;53.614;9.894;2023-04-02T00:39:30;101400.75;;;0.94;72.31
21781;BME280;52576;53.614;9.894;2023-04-02T00:41:36;101410.22;;;0.95;72.41
21781;BME280;52576;53.614;9.894;2023-04-02T00:43:47;101410.19;;;0.97;72.13
21781;BME280;52576;53.614;9.894;2023-04-02T00:45:53;101417.06;;;0.98;71.91
21781;BME280;52576;53.614;9.894;2023-04-02T00:47:57;101417.06;;;0.98;71.90
21781;BME280;52576;53.614;9.894;2023-04-02T00:50:03;101419.63;;;0.99;71.72
21781;BME280;52576;53.614;9.894;2023-04-02T00:52:08;101426.47;;;1.00;71.77
21781;BME280;52576;53.614;9.894;2023-04-02T00:54:12;101427.34;;;1.01;71.69
21781;BME280;52576;53.614;9.894;2023-04-02T00:56:17;101434.25;;;0.99;71.55
21781;BME280;52576;53.614;9.894;2023-04-02T00:58:26;101430.81;;;0.98;71.50
21781;BME280;52576;53.614;9.894;2023-04-02T01:00:30;101438.56;;;0.98;71.67
21781;BME280;52576;53.614;9.894;2023-04-02T01:02:34;101443.75;;;0.97;71.63
21781;BME280;52576;53.614;9.894;2023-04-02T01:04:39;101446.28;;;1.00;71.35
21781;BME280;52576;53.614;9.894;2023-04-02T01:06:42;101451.41;;;1.01;71.15
21781;BME280;52576;53.614;9.894;2023-04-02T01:08:53;101443.59;;;1.05;71.30
21781;BME280;52576;53.614;9.894;2023-04-02T01:11:03;101447.88;;;1.06;71.09
21781;BME280;52576;53.614;9.894;2023-04-02T01:13:12;101453.00;;;1.07;70.96
21781;BME280;52576;53.614;9.894;2023-04-02T01:15:23;101447.00;;;1.07;71.03
21781;BME280;52576;53.614;9.894;2023-04-02T01:17:37;101452.16;;;1.07;70.93
21781;BME280;52576;53.614;9.894;2023-04-02T01:19:50;101461.59;;;1.09;70.79
21781;BME280;52576;53.614;9.894;2023-04-02T01:21:59;101460.75;;;1.09;70.56
21781;BME280;52576;53.614;9.894;2023-04-02T01:24:08;101467.59;;;1.10;70.74
21781;BME280;52576;53.614;9.894;2023-04-02T01:26:15;101466.78;;;1.08;70.46
21781;BME280;52576;53.614;9.894;2023-04-02T01:28:22;101467.66;;;1.07;70.77
21781;BME280;52576;53.614;9.894;2023-04-02T01:30:29;101474.56;;;1.05;70.59
21781;BME280;52576;53.614;9.894;2023-04-02T01:32:32;101478.06;;;1.04;70.61
21781;BME280;52576;53.614;9.894;2023-04-02T01:34:35;101491.00;;;1.02;70.51
21781;BME280;52576;53.614;9.894;2023-04-02T01:36:41;101489.31;;;0.99;70.60
21781;BME280;52576;53.614;9.894;2023-04-02T01:38:46;101497.09;;;0.96;70.86
21781;BME280;52576;53.614;9.894;2023-04-02T01:40:54;101488.53;;;0.94;70.94
21781;BME280;52576;53.614;9.894;2023-04-02T01:42:59;101499.72;;;0.93;70.92
21781;BME280;52576;53.614;9.894;2023-04-02T01:45:08;101503.19;;;0.91;70.88
21781;BME280;52576;53.614;9.894;2023-04-02T01:47:13;101506.66;;;0.90;70.98
21781;BME280;52576;53.614;9.894;2023-04-02T01:49:18;101510.09;;;0.89;71.15
21781;BME280;52576;53.614;9.894;2023-04-02T01:51:24;101513.56;;;0.88;71.21
21781;BME280;52576;53.614;9.894;2023-04-02T01:53:28;101513.59;;;0.86;71.09
21781;BME280;52576;53.614;9.894;2023-04-02T01:55:36;101519.63;;;0.85;71.37
21781;BME280;52576;53.614;9.894;2023-04-02T01:57:40;101521.38;;;0.83;71.25
21781;BME280;52576;53.614;9.894;2023-04-02T01:59:45;101524.84;;;0.81;71.24
21781;BME280;52576;53.614;9.894;2023-04-02T02:01:56;101526.56;;;0.80;71.54
21781;BME280;52576;53.614;9.894;2023-04-02T02:04:07;101521.47;;;0.77;71.48
21781;BME280;52576;53.614;9.894;2023-04-02T02:06:14;101520.63;;;0.77;71.58
21781;BME280;52576;53.614;9.894;2023-04-02T02:08:21;101536.13;;;0.75;71.65
21781;BME280;52576;53.614;9.894;2023-04-02T02:10:27;101537.00;;;0.74;71.86
21781;BME280;52576;53.614;9.894;2023-04-02T02:12:31;101537.03;;;0.71;71.80
21781;BME280;52576;53.614;9.894;2023-04-02T02:14:34;101538.78;;;0.69;72.07
21781;BME280;52576;53.614;9.894;2023-04-02T02:16:38;101541.41;;;0.66;72.18
21781;BME280;52576;53.614;9.894;2023-04-02T02:18:43;101546.59;;;0.63;72.43
21781;BME280;52576;53.614;9.894;2023-04-02T02:20:48;101549.22;;;0.60;72.41
21781;BME280;52576;53.614;9.894;2023-04-02T02:22:52;101546.69;;;0.57;72.49
21781;BME280;52576;53.614;9.894;2023-04-02T02:24:56;101557.03;;;0.54;72.52
21781;BME280;52576;53.614;9.894;2023-04-02T02:27:03;101557.91;;;0.53;72.56
21781;BME280;52576;53.614;9.894;2023-04-02T02:29:10;101567.38;;;0.52;72.90
21781;BME280;52576;53.614;9.894;2023-04-02T02:31:17;101562.28;;;0.49;72.76
21781;BME280;52576;53.614;9.894;2023-04-02T02:33:27;101559.72;;;0.48;72.97
21781;BME280;52576;53.614;9.894;2023-04-02T02:35:37;101564.03;;;0.47;73.25
21781;BME280;52576;53.614;9.894;2023-04-02T02:37:45;101567.50;;;0.45;73.37
21781;BME280;52576;53.614;9.894;2023-04-02T02:39:50;101573.53;;;0.44;73.35
21781;BME280;52576;53.614;9.894;2023-04-02T02:41:58;101578.69;;;0.44;73.27
21781;BME280;52576;53.614;9.894;2023-04-02T02:44:04;101583.84;;;0.42;73.47
21781;BME280;52576;53.614;9.894;2023-04-02T02:46:14;101585.56;;;0.42;73.22
21781;BME280;52576;53.614;9.894;2023-04-02T02:48:19;101587.31;;;0.40;73.53
21781;BME280;52576;53.614;9.894;2023-04-02T02:50:26;101591.63;;;0.39;73.57
21781;BME280;52576;53.614;9.894;2023-04-02T02:52:34;101590.78;;;0.39;73.59
21781;BME280;52576;53.614;9.894;2023-04-02T02:54:43;101592.50;;;0.37;73.68
21781;BME280;52576;53.614;9.894;2023-04-02T02:56:48;101605.41;;;0.37;73.72
21781;BME280;52576;53.614;9.894;2023-04-02T02:58:58;101606.28;;;0.36;73.71
21781;BME280;52576;53.614;9.894;2023-04-02T03:01:07;101604.56;;;0.33;74.00
21781;BME280;52576;53.614;9.894;2023-04-02T03:03:13;101613.19;;;0.30;74.01
21781;BME280;52576;53.614;9.894;2023-04-02T03:05:22;101620.94;;;0.29;74.16
21781;BME280;52576;53.614;9.894;2023-04-02T03:07:30;101619.25;;;0.26;74.11
21781;BME280;52576;53.614;9.894;2023-04-02T03:09:35;101620.16;;;0.25;74.09
21781;BME280;52576;53.614;9.894;2023-04-02T03:11:43;101627.91;;;0.24;74.12
21781;BME280;52576;53.614;9.894;2023-04-02T03:13:57;101633.94;;;0.21;74.45
21781;BME280;52576;53.614;9.894;2023-04-02T03:16:07;101630.53;;;0.19;74.29
21781;BME280;52576;53.614;9.894;2023-04-02T03:18:13;101631.41;;;0.18;74.54
21781;BME280;52576;53.614;9.894;2023-04-02T03:20:21;101637.44;;;0.16;74.48
21781;BME280;52576;53.614;9.894;2023-04-02T03:22:28;101638.31;;;0.13;74.52
21781;BME280;52576;53.614;9.894;2023-04-02T03:24:37;101647.78;;;0.11;74.73
21781;BME280;52576;53.614;9.894;2023-04-02T03:26:46;101652.09;;;0.11;74.90
21781;BME280;52576;53.614;9.894;2023-04-02T03:28:52;101663.28;;;0.08;75.10
21781;BME280;52576;53.614;9.894;2023-04-02T03:31:02;101665.00;;;0.09;74.94
21781;BME280;52576;53.614;9.894;2023-04-02T03:33:09;101670.13;;;0.12;74.95
21781;BME280;52576;53.614;9.894;2023-04-02T03:35:24;101671.81;;;0.13;75.27
21781;BME280;52576;53.614;9.894;2023-04-02T03:37:29;101667.50;;;0.15;75.13
21781;BME280;52576;53.614;9.894;2023-04-02T03:39:35;101673.50;;;0.17;75.37
21781;BME280;52576;53.614;9.894;2023-04-02T03:41:40;101682.94;;;0.20;75.37
21781;BME280;52576;53.614;9.894;2023-04-02T03:43:53;101676.06;;;0.22;75.46
21781;BME280;52576;53.614;9.894;2023-04-02T03:46:03;101675.19;;;0.21;75.39
21781;BME280;52576;53.614;9.894;2023-04-02T03:48:10;101687.22;;;0.22;75.44
21781;BME280;52576;53.614;9.894;2023-04-02T03:50:16;101693.22;;;0.23;75.42
21781;BME280;52576;53.614;9.894;2023-04-02T03:52:21;101690.63;;;0.24;75.49
21781;BME280;52576;53.614;9.894;2023-04-02T03:54:26;101692.34;;;0.25;75.66
21781;BME280;52576;53.614;9.894;2023-04-02T03:56:33;101696.59;;;0.28;75.75
21781;BME280;52576;53.614;9.894;2023-04-02T03:58:44;101702.59;;;0.28;75.46
21781;BME280;52576;53.614;9.894;2023-04-02T04:00:53;101711.19;;;0.30;75.62
21781;BME280;52576;53.614;9.894;2023-04-02T04:02:59;101718.03;;;0.33;75.45
21781;BME280;52576;53.614;9.894;2023-04-02T04:05:07;101718.00;;;0.36;75.50
21781;BME280;52576;53.614;9.894;2023-04-02T04:07:22;101723.16;;;0.38;75.39
21781;BME280;52576;53.614;9.894;2023-04-02T04:09:30;101723.13;;;0.41;75.46
21781;BME280;52576;53.614;9.894;2023-04-02T04:11:34;101726.56;;;0.41;75.48
21781;BME280;52576;53.614;9.894;2023-04-02T04:13:42;101728.25;;;0.44;75.75
21781;BME280;52576;53.614;9.894;2023-04-02T04:15:48;101735.13;;;0.45;75.54
21781;BME280;52576;53.614;9.894;2023-04-02T04:17:56;101735.97;;;0.47;75.54
21781;BME280;52576;53.614;9.894;2023-04-02T04:20:12;101741.13;;;0.47;75.54
21781;BME280;52576;53.614;9.894;2023-04-02T04:22:19;101747.13;;;0.49;75.50
21781;BME280;52576;53.614;9.894;2023-04-02T04:24:35;101743.69;;;0.50;75.68
21781;BME280;52576;53.614;9.894;2023-04-02T04:26:42;101754.00;;;0.51;75.54
21781;BME280;52576;53.614;9.894;2023-04-02T04:28:53;101753.94;;;0.53;75.68
21781;BME280;52576;53.614;9.894;2023-04-02T04:31:02;101755.66;;;0.54;75.83
21781;BME280;52576;53.614;9.894;2023-04-02T04:33:14;101760.81;;;0.54;75.75
21781;BME280;52576;53.614;9.894;2023-04-02T04:35:25;101760.81;;;0.52;75.85
21781;BME280;52576;53.614;9.894;2023-04-02T04:37:34;101770.34;;;0.50;75.79
21781;BME280;52576;53.614;9.894;2023-04-02T04:39:43;101766.91;;;0.48;76.04
21781;BME280;52576;53.614;9.894;2023-04-02T04:41:49;101776.38;;;0.48;76.07
21781;BME280;52576;53.614;9.894;2023-04-02T04:43:57;101784.13;;;0.46;75.97
21781;BME280;52576;53.614;9.894;2023-04-02T04:46:02;101788.44;;;0.46;76.27
21781;BME280;52576;53.614;9.894;2023-04-02T04:48:08;101782.41;;;0.47;76.20
21781;BME280;52576;53.614;9.894;2023-04-02T04:50:14;101791.00;;;0.47;76.45
21781;BME280;52576;53.614;9.894;2023-04-02T04:52:22;101792.69;;;0.48;76.49
21781;BME280;52576;53.614;9.894;2023-04-02T04:54:26;101798.72;;;0.49;76.45
21781;BME280;52576;53.614;9.894;2023-04-02T04:56:31;101804.75;;;0.48;76.54
21781;BME280;52576;53.614;9.894;2023-04-02T04:58:44;101798.72;;;0.49;76.54
21781;BME280;52576;53.614;9.894;2023-04-02T05:00:54;101809.03;;;0.49;76.54
21781;BME280;52576;53.614;9.894;2023-04-02T05:02:59;101810.75;;;0.50;76.52
21781;BME280;52576;53.614;9.894;2023-04-02T05:05:16;101820.19;;;0.51;76.60
21781;BME280;52576;53.614;9.894;2023-04-02T05:07:22;101826.16;;;0.53;76.39
21781;BME280;52576;53.614;9.894;2023-04-02T05:09:29;101823.56;;;0.54;76.37
21781;BME280;52576;53.614;9.894;2023-04-02T05:11:35;101826.16;;;0.56;76.62
21781;BME280;52576;53.614;9.894;2023-04-02T05:13:41;101839.88;;;0.58;76.44
21781;BME280;52576;53.614;9.894;2023-04-02T05:15:48;101840.72;;;0.60;76.54
21781;BME280;52576;53.614;9.894;2023-04-02T05:17:54;101850.16;;;0.64;76.50
21781;BME280;52576;53.614;9.894;2023-04-02T05:20:02;101854.44;;;0.66;76.58
21781;BME280;52576;53.614;9.894;2023-04-02T05:22:13;101844.94;;;0.70;76.43
21781;BME280;52576;53.614;9.894;2023-04-02T05:24:32;101849.22;;;0.76;76.49
21781;BME280;52576;53.614;9.894;2023-04-02T05:26:39;101853.44;;;0.81;76.52
21781;BME280;52576;53.614;9.894;2023-04-02T05:28:45;101850.81;;;0.87;76.53
21781;BME280;52576;53.614;9.894;2023-04-02T05:30:53;101860.19;;;0.94;76.42
21781;BME280;52576;53.614;9.894;2023-04-02T05:32:59;101858.44;;;0.99;76.45
21781;BME280;52576;53.614;9.894;2023-04-02T05:35:06;101863.50;;;1.06;76.23
21781;BME280;52576;53.614;9.894;2023-04-02T05:37:18;101858.28;;;1.12;76.14
21781;BME280;52576;53.614;9.894;2023-04-02T05:39:23;101865.13;;;1.19;76.18
21781;BME280;52576;53.614;9.894;2023-04-02T05:41:31;101870.19;;;1.28;75.84
21781;BME280;52576;53.614;9.894;2023-04-02T05:43:38;101875.25;;;1.35;75.41
21781;BME280;52576;53.614;9.894;2023-04-02T05:45:50;101876.03;;;1.42;75.33
21781;BME280;52576;53.614;9.894;2023-04-02T05:47:56;101869.94;;;1.49;75.19
21781;BME280;52576;53.614;9.894;2023-04-02T05:50:15;101868.97;;;1.56;74.78
21781;BME280;52576;53.614;9.894;2023-04-02T05:52:24;101875.78;;;1.63;74.37
21781;BME280;52576;53.614;9.894;2023-04-02T05:54:30;101880.00;;;1.70;74.34
21781;BME280;52576;53.614;9.894;2023-04-02T05:56:35;101879.94;;;1.77;74.43
21781;BME280;52576;53.614;9.894;2023-04-02T05:58:40;101881.53;;;1.84;74.22
21781;BME280;52576;53.614;9.894;2023-04-02T06:01:13;101890.97;;;1.89;73.84
21781;BME280;52576;53.614;9.894;2023-04-02T06:03:21;101893.47;;;1.94;73.73
21781;BME280;52576;53.614;9.894;2023-04-02T06:05:31;101890.88;;;1.97;73.43
21781;BME280;52576;53.614;9.894;2023-04-02T06:07:40;101894.25;;;2.00;73.06
21781;BME280;52576;53.614;9.894;2023-04-02T06:09:49;101908.00;;;2.04;72.79
21781;BME280;52576;53.614;9.894;2023-04-02T06:11:55;101900.16;;;2.10;72.80
21781;BME280;52576;53.614;9.894;2023-04-02T06:13:59;101908.69;;;2.15;72.68
21781;BME280;52576;53.614;9.894;2023-04-02T06:16:02;101912.03;;;2.23;72.78
21781;BME280;52576;53.614;9.894;2023-04-02T06:18:08;101917.13;;;2.31;72.54
21781;BME280;52576;53.614;9.894;2023-04-02T06:20:14;101916.97;;;2.38;72.42
21781;BME280;52576;53.614;9.894;2023-04-02T06:22:21;101922.03;;;2.48;72.43
21781;BME280;52576;53.614;9.894;2023-04-02T06:24:31;101927.09;;;2.57;72.25
21781;BME280;52576;53.614;9.894;2023-04-02T06:26:37;101926.06;;;2.65;72.25
21781;BME280;52576;53.614;9.894;2023-04-02T06:28:44;101933.72;;;2.73;72.00
21781;BME280;52576;53.614;9.894;2023-04-02T06:30:50;101938.81;;;2.79;71.43
21781;BME280;52576;53.614;9.894;2023-04-02T06:32:55;101935.28;;;2.83;70.61
21781;BME280;52576;53.614;9.894;2023-04-02T06:35:00;101943.81;;;2.88;70.27
21781;BME280;52576;53.614;9.894;2023-04-02T06:37:03;101943.75;;;2.91;69.46
21781;BME280;52576;53.614;9.894;2023-04-02T06:39:15;101949.72;;;2.96;69.28
21781;BME280;52576;53.614;9.894;2023-04-02T06:41:22;101960.88;;;3.01;69.17
21781;BME280;52576;53.614;9.894;2023-04-02T06:43:49;101957.31;;;3.09;68.97
21781;BME280;52576;53.614;9.894;2023-04-02T06:46:07;101955.41;;;3.17;68.53
21781;BME280;52576;53.614;9.894;2023-04-02T06:48:29;101968.25;;;3.24;68.70
21781;BME280;52576;53.614;9.894;2023-04-02T06:50:35;101954.31;;;3.31;68.67
21781;BME280;52576;53.614;9.894;2023-04-02T06:52:42;101965.41;;;3.38;68.07
21781;BME280;52576;53.614;9.894;2023-04-02T06:54:46;101978.22;;;3.46;67.46
21781;BME280;52576;53.614;9.894;2023-04-02T06:56:52;101972.09;;;3.51;67.26
21781;BME280;52576;53.614;9.894;2023-04-02T06:59:04;101978.88;;;3.58;66.92
21781;BME280;52576;53.614;9.894;2023-04-02T07:01:08;101972.69;;;3.64;66.61
21781;BME280;52576;53.614;9.894;2023-04-02T07:03:19;101982.09;;;3.69;66.46
21781;BME280;52576;53.614;9.894;2023-04-02T07:05:24;101985.47;;;3.74;66.29
21781;BME280;52576;53.614;9.894;2023-04-02T07:07:28;101990.59;;;3.78;66.25
21781;BME280;52576;53.614;9.894;2023-04-02T07:09:32;101997.38;;;3.85;66.26
21781;BME280;52576;53.614;9.894;2023-04-02T07:11:37;101999.81;;;3.92;66.32
21781;BME280;52576;53.614;9.894;2023-04-02T07:13:43;101998.78;;;4.01;66.06
21781;BME280;52576;53.614;9.894;2023-04-02T07:15:46;102004.72;;;4.06;65.79
21781;BME280;52576;53.614;9.894;2023-04-02T07:17:51;102002.97;;;4.08;65.40
21781;BME280;52576;53.614;9.894;2023-04-02T07:19:55;102018.50;;;4.09;65.05
21781;BME280;52576;53.614;9.894;2023-04-02T07:21:58;102011.59;;;4.08;64.81
21781;BME280;52576;53.614;9.894;2023-04-02T07:24:07;102022.81;;;4.11;64.94
21781;BME280;52576;53.614;9.894;2023-04-02T07:26:12;102021.97;;;4.10;65.01
21781;BME280;52576;53.614;9.894;2023-04-02T07:28:15;102030.56;;;4.12;64.89
21781;BME280;52576;53.614;9.894;2023-04-02T07:30:22;102038.28;;;4.15;64.78
21781;BME280;52576;53.614;9.894;2023-04-02T07:32:25;102029.53;;;4.19;64.61
21781;BME280;52576;53.614;9.894;2023-04-02T07:34:28;102039.81;;;4.24;63.88
21781;BME280;52576;53.614;9.894;2023-04-02T07:36:31;102042.34;;;4.27;63.93
21781;BME280;52576;53.614;9.894;2023-04-02T07:38:34;102037.03;;;4.34;63.86
21781;BME280;52576;53.614;9.894;2023-04-02T07:40:37;102046.34;;;4.43;63.50
21781;BME280;52576;53.614;9.894;2023-04-02T07:42:40;102044.41;;;4.53;63.55
21781;BME280;52576;53.614;9.894;2023-04-02T07:44:43;102042.50;;;4.61;63.20
21781;BME280;52576;53.614;9.894;2023-04-02T07:46:47;102051.13;;;4.63;62.23
21781;BME280;52576;53.614;9.894;2023-04-02T07:48:50;102056.31;;;4.63;62.04
21781;BME280;52576;53.614;9.894;2023-04-02T07:50:54;102051.13;;;4.63;62.18
21781;BME280;52576;53.614;9.894;2023-04-02T07:52:57;102063.16;;;4.67;62.09
21781;BME280;52576;53.614;9.894;2023-04-02T07:55:00;102064.00;;;4.67;61.76
21781;BME280;52576;53.614;9.894;2023-04-02T07:57:03;102069.13;;;4.70;61.95
21781;BME280;52576;53.614;9.894;2023-04-02T07:59:06;102071.69;;;4.72;61.61
21781;BME280;52576;53.614;9.894;2023-04-02T08:01:13;102074.19;;;4.76;61.59
21781;BME280;52576;53.614;9.894;2023-04-02T08:03:18;102075.81;;;4.81;61.75
21781;BME280;52576;53.614;9.894;2023-04-02T08:05:22;102078.34;;;4.85;61.53
21781;BME280;52576;53.614;9.894;2023-04-02T08:07:25;102079.06;;;4.92;61.75
21781;BME280;52576;53.614;9.894;2023-04-02T08:09:29;102083.16;;;5.00;61.21
21781;BME280;52576;53.614;9.894;2023-04-02T08:11:32;102087.34;;;5.07;60.85
21781;BME280;52576;53.614;9.894;2023-04-02T08:13:35;102088.13;;;5.11;59.86
21781;BME280;52576;53.614;9.894;2023-04-02T08:15:38;102100.19;;;5.14;59.83
21781;BME280;52576;53.614;9.894;2023-04-02T08:17:41;102094.94;;;5.17;59.54
21781;BME280;52576;53.614;9.894;2023-04-02T08:19:45;102099.97;;;5.23;59.87
21781;BME280;52576;53.614;9.894;2023-04-02T08:21:55;102106.69;;;5.33;59.42
21781;BME280;52576;53.614;9.894;2023-04-02T08:23:58;102105.66;;;5.40;59.17
21781;BME280;52576;53.614;9.894;2023-04-02T08:26:02;102109.09;;;5.40;58.28
21781;BME280;52576;53.614;9.894;2023-04-02T08:28:05;102119.47;;;5.42;58.63
21781;BME280;52576;53.614;9.894;2023-04-02T08:30:09;102117.69;;;5.44;58.54
21781;BME280;52576;53.614;9.894;2023-04-02T08:32:14;102127.09;;;5.48;58.21
21781;BME280;52576;53.614;9.894;2023-04-02T08:34:17;102125.25;;;5.53;57.75
21781;BME280;52576;53.614;9.894;2023-04-02T08:36:23;102119.03;;;5.59;57.60
21781;BME280;52576;53.614;9.894;2023-04-02T08:38:28;102123.25;;;5.64;57.77
21781;BME280;52576;53.614;9.894;2023-04-02T08:40:32;102119.59;;;5.71;57.56
21781;BME280;52576;53.614;9.894;2023-04-02T08:42:36;102122.03;;;5.77;57.32
21781;BME280;52576;53.614;9.894;2023-04-02T08:44:44;102117.50;;;5.86;57.37
21781;BME280;52576;53.614;9.894;2023-04-02T08:46:53;102131.22;;;5.94;57.45
21781;BME280;52576;53.614;9.894;2023-04-02T08:48:58;102127.53;;;6.01;57.48
21781;BME280;52576;53.614;9.894;2023-04-02T08:51:03;102134.28;;;6.08;57.14
21781;BME280;52576;53.614;9.894;2023-04-02T08:53:09;102145.44;;;6.13;56.77
21781;BME280;52576;53.614;9.894;2023-04-02T08:55:16;102147.09;;;6.16;56.97
21781;BME280;52576;53.614;9.894;2023-04-02T08:57:22;102145.28;;;6.19;57.00
21781;BME280;52576;53.614;9.894;2023-04-02T08:59:30;102158.28;;;6.19;57.06
21781;BME280;52576;53.614;9.894;2023-04-02T09:01:35;102145.31;;;6.18;56.86
21781;BME280;52576;53.614;9.894;2023-04-02T09:03:44;102163.66;;;6.13;57.07
21781;BME280;52576;53.614;9.894;2023-04-02T09:05:47;102163.88;;;6.04;57.02
21781;BME280;52576;53.614;9.894;2023-04-02T09:07:52;102168.47;;;5.96;57.35
21781;BME280;52576;53.614;9.894;2023-04-02T09:09:58;102165.94;;;5.93;57.26
21781;BME280;52576;53.614;9.894;2023-04-02T09:12:01;102171.22;;;5.90;57.68
21781;BME280;52576;53.614;9.894;2023-04-02T09:14:08;102178.13;;;5.91;57.73
21781;BME280;52576;53.614;9.894;2023-04-02T09:16:16;102180.50;;;5.98;57.94
21781;BME280;52576;53.614;9.894;2023-04-02T09:18:23;102176.88;;;6.05;57.23
21781;BME280;52576;53.614;9.894;2023-04-02T09:20:26;102175.84;;;6.11;56.79
21781;BME280;52576;53.614;9.894;2023-04-02T09:22:30;102180.06;;;6.17;56.78
21781;BME280;52576;53.614;9.894;2023-04-02T09:24:34;102183.38;;;6.23;56.71
21781;BME280;52576;53.614;9.894;2023-04-02T09:26:39;102192.53;;;6.36;56.48
21781;BME280;52576;53.614;9.894;2023-04-02T09:28:42;102194.75;;;6.50;56.53
21781;BME280;52576;53.614;9.894;2023-04-02T09:30:54;102194.31;;;6.67;56.32
21781;BME280;52576;53.614;9.894;2023-04-02T09:33:00;102186.94;;;6.81;55.94
21781;BME280;52576;53.614;9.894;2023-04-02T09:35:10;102194.50;;;6.90;55.08
21781;BME280;52576;53.614;9.894;2023-04-02T09:37:33;102192.63;;;6.95;54.39
21781;BME280;52576;53.614;9.894;2023-04-02T09:39:37;102198.75;;;6.94;53.26
21781;BME280;52576;53.614;9.894;2023-04-02T09:41:43;102198.88;;;6.90;53.31
21781;BME280;52576;53.614;9.894;2023-04-02T09:44:19;102206.72;;;6.88;53.82
21781;BME280;52576;53.614;9.894;2023-04-02T09:46:23;102200.66;;;6.88;52.91
21781;BME280;52576;53.614;9.894;2023-04-02T09:48:27;102210.25;;;6.87;51.78
21781;BME280;52576;53.614;9.894;2023-04-02T09:50:32;102215.53;;;6.84;52.04
21781;BME280;52576;53.614;9.894;2023-04-02T09:52:36;102213.81;;;6.83;51.10
21781;BME280;52576;53.614;9.894;2023-04-02T09:54:39;102226.03;;;6.81;50.91
21781;BME280;52576;53.614;9.894;2023-04-02T09:59:15;102225.38;;;6.74;50.90
21781;BME280;52576;53.614;9.894;2023-04-02T10:01:25;102226.31;;;6.72;51.34
21781;BME280;52576;53.614;9.894;2023-04-02T10:03:30;102229.72;;;6.74;50.63
21781;BME280;52576;53.614;9.894;2023-04-02T10:05:35;102225.31;;;6.76;50.91
21781;BME280;52576;53.614;9.894;2023-04-02T10:07:42;102233.03;;;6.79;50.77
21781;BME280;52576;53.614;9.894;2023-04-02T10:09:46;102239.88;;;6.83;50.09
21781;BME280;52576;53.614;9.894;2023-04-02T10:11:59;102237.16;;;6.88;50.17
21781;BME280;52576;53.614;9.894;2023-04-02T10:14:03;102229.22;;;6.92;50.54
21781;BME280;52576;53.614;9.894;2023-04-02T10:16:10;102230.84;;;6.96;51.52
21781;BME280;52576;53.614;9.894;2023-04-02T10:18:15;102232.34;;;7.03;51.65
21781;BME280;52576;53.614;9.894;2023-04-02T10:20:23;102232.19;;;7.09;52.25
21781;BME280;52576;53.614;9.894;2023-04-02T10:22:27;102250.19;;;7.19;51.45
21781;BME280;52576;53.614;9.894;2023-04-02T10:24:31;102247.56;;;7.19;51.40
21781;BME280;52576;53.614;9.894;2023-04-02T10:28:58;102265.19;;;7.10;51.00
21781;BME280;52576;53.614;9.894;2023-04-02T10:31:09;102268.97;;;7.00;51.01
21781;BME280;52576;53.614;9.894;2023-04-02T10:33:20;102283.09;;;6.92;50.56
21781;BME280;52576;53.614;9.894;2023-04-02T10:35:29;102272.78;;;6.87;50.21
21781;BME280;52576;53.614;9.894;2023-04-02T10:37:43;102285.00;;;6.85;49.51
21781;BME280;52576;53.614;9.894;2023-04-02T10:39:48;102271.13;;;6.85;50.12
21781;BME280;52576;53.614;9.894;2023-04-02T10:41:55;102284.94;;;6.88;49.39
21781;BME280;52576;53.614;9.894;2023-04-02T10:44:14;102291.75;;;6.92;50.10
21781;BME280;52576;53.614;9.894;2023-04-02T10:46:23;102296.84;;;6.97;49.55
21781;BME280;52576;53.614;9.894;2023-04-02T10:48:31;102290.59;;;7.02;49.58
21781;BME280;52576;53.614;9.894;2023-04-02T10:50:40;102309.50;;;7.10;49.39
21781;BME280;52576;53.614;9.894;2023-04-02T10:52:47;102308.47;;;7.16;49.26
21781;BME280;52576;53.614;9.894;2023-04-02T10:54:55;102297.91;;;7.21;49.20
21781;BME280;52576;53.614;9.894;2023-04-02T10:57:03;102318.50;;;7.30;49.67
21781;BME280;52576;53.614;9.894;2023-04-02T10:59:10;102310.38;;;7.40;49.80
21781;BME280;52576;53.614;9.894;2023-04-02T11:01:18;102323.13;;;7.51;49.73
21781;BME280;52576;53.614;9.894;2023-04-02T11:03:27;102322.84;;;7.60;49.37
21781;BME280;52576;53.614;9.894;2023-04-02T11:05:33;102313.94;;;7.67;48.74
21781;BME280;52576;53.614;9.894;2023-04-02T11:07:44;102319.97;;;7.69;48.66
21781;BME280;52576;53.614;9.894;2023-04-02T11:09:51;102313.00;;;7.70;49.54
21781;BME280;52576;53.614;9.894;2023-04-02T11:11:55;102319.78;;;7.75;49.51
21781;BME280;52576;53.614;9.894;2023-04-02T11:14:00;102322.31;;;7.78;48.79
21781;BME280;52576;53.614;9.894;2023-04-02T11:16:05;102319.53;;;7.83;48.35
21781;BME280;52576;53.614;9.894;2023-04-02T11:18:19;102322.91;;;7.87;48.46
21781;BME280;52576;53.614;9.894;2023-04-02T11:25:12;102328.56;;;8.01;47.01